Time;durP1;ratioP1;P1;durP2;ratioP2;P2;SDS_P1;SDS_P2;PMS_P1;PMS_P2;Temp;Humidity;BMP_temperature;BMP_pressure;BME280_temperature;BME280_humidity;BME280_pressure;Samples;Min_cycle;Max_cycle;Signal;HPM_P1;HPM_P2
2023/12/16 00:01:08;;;;;;;13.80;3.38;;;7.90;99.90;;;;;;5003963;28;20052;-66
2023/12/16 00:03:34;;;;;;;9.02;2.72;;;7.90;99.90;;;;;;4995424;28;20580;-66
2023/12/16 00:06:00;;;;;;;10.32;2.58;;;7.90;99.90;;;;;;5004284;28;20045;-67
2023/12/16 00:08:25;;;;;;;11.27;3.00;;;8.00;99.90;;;;;;5000302;28;20549;-67
2023/12/16 00:10:51;;;;;;;6.85;2.42;;;8.00;99.90;;;;;;5004228;28;20030;-65
2023/12/16 00:13:17;;;;;;;10.32;2.50;;;7.90;99.90;;;;;;4985308;28;20030;-65
2023/12/16 00:15:43;;;;;;;15.55;3.40;;;7.90;99.90;;;;;;5003461;28;20386;-65
2023/12/16 00:18:08;;;;;;;9.50;1.90;;;7.90;99.90;;;;;;5004051;28;20397;-66
2023/12/16 00:20:34;;;;;;;11.15;2.40;;;7.90;99.90;;;;;;5004324;28;20493;-65
2023/12/16 00:23:00;;;;;;;6.20;2.08;;;7.90;99.90;;;;;;4998533;28;20042;-65
2023/12/16 00:25:26;;;;;;;7.90;2.40;;;7.80;99.90;;;;;;5004621;28;20077;-66
2023/12/16 00:27:52;;;;;;;6.53;2.10;;;7.70;99.90;;;;;;4995777;28;20041;-65
2023/12/16 00:30:18;;;;;;;12.18;2.50;;;7.70;99.90;;;;;;4991015;28;20512;-65
2023/12/16 00:32:43;;;;;;;12.38;2.00;;;7.80;99.90;;;;;;5003018;28;20046;-66
2023/12/16 00:35:09;;;;;;;16.85;3.05;;;7.70;99.90;;;;;;5001672;28;20473;-65
2023/12/16 00:37:35;;;;;;;8.35;2.03;;;7.80;99.90;;;;;;5000712;28;20085;-66
2023/12/16 00:40:02;;;;;;;6.95;1.85;;;7.70;99.90;;;;;;4999187;28;20050;-66
2023/12/16 00:42:29;;;;;;;7.40;2.17;;;7.70;99.90;;;;;;5003151;28;20408;-65
2023/12/16 00:44:56;;;;;;;11.90;2.60;;;7.70;99.90;;;;;;4998257;28;20061;-66
2023/12/16 00:47:23;;;;;;;9.10;2.13;;;7.60;99.90;;;;;;4994342;28;20054;-66
2023/12/16 00:49:48;;;;;;;8.40;1.85;;;7.70;99.90;;;;;;4997715;28;20501;-66
2023/12/16 00:52:14;;;;;;;9.63;2.45;;;7.60;99.90;;;;;;5001782;28;20038;-66
2023/12/16 00:54:40;;;;;;;10.27;2.20;;;7.50;99.90;;;;;;4994398;28;20428;-66
2023/12/16 00:57:05;;;;;;;8.48;2.50;;;7.50;99.90;;;;;;4994556;28;20515;-65
2023/12/16 00:59:31;;;;;;;10.45;2.70;;;7.40;99.90;;;;;;4995154;28;20528;-66
2023/12/16 01:01:57;;;;;;;10.25;2.38;;;7.40;99.90;;;;;;4999412;28;20042;-65
2023/12/16 01:04:23;;;;;;;15.13;2.85;;;7.40;99.90;;;;;;4994752;28;20081;-66
2023/12/16 01:06:48;;;;;;;7.20;2.10;;;7.30;99.90;;;;;;5001685;28;20121;-65
2023/12/16 01:09:14;;;;;;;11.27;2.58;;;7.30;99.90;;;;;;4994140;28;20123;-66
2023/12/16 01:11:41;;;;;;;9.10;2.70;;;7.30;99.90;;;;;;4997702;28;20240;-65
2023/12/16 01:14:08;;;;;;;8.75;1.95;;;7.30;99.90;;;;;;5001246;28;20049;-65
2023/12/16 01:16:33;;;;;;;7.85;2.60;;;7.30;99.90;;;;;;5002835;28;20193;-66
2023/12/16 01:18:59;;;;;;;10.23;2.30;;;7.30;99.90;;;;;;5003294;28;20484;-66
2023/12/16 01:21:25;;;;;;;9.88;2.30;;;7.30;99.90;;;;;;4993217;28;20528;-65
2023/12/16 01:23:51;;;;;;;13.52;2.42;;;7.20;99.90;;;;;;4994617;28;20037;-66
2023/12/16 01:26:17;;;;;;;12.02;2.05;;;7.20;99.90;;;;;;5002192;28;20041;-65
2023/12/16 01:28:43;;;;;;;10.40;2.10;;;7.20;99.90;;;;;;5000709;28;20038;-66
2023/12/16 01:31:09;;;;;;;11.52;2.72;;;7.20;99.90;;;;;;4997884;28;20229;-66
2023/12/16 01:33:35;;;;;;;8.73;2.17;;;7.20;99.90;;;;;;4996770;28;20418;-65
2023/12/16 01:36:00;;;;;;;8.77;1.98;;;7.10;99.90;;;;;;4999311;28;20042;-66
2023/12/16 01:38:27;;;;;;;8.05;1.85;;;7.20;99.90;;;;;;5003147;28;20050;-66
2023/12/16 01:40:52;;;;;;;14.20;2.10;;;7.20;99.90;;;;;;5003356;28;20037;-65
2023/12/16 01:43:18;;;;;;;8.30;2.05;;;7.20;99.90;;;;;;4999846;28;20034;-65
2023/12/16 01:45:44;;;;;;;6.55;1.70;;;7.20;99.90;;;;;;4998097;28;20045;-65
2023/12/16 01:48:12;;;;;;;8.25;1.98;;;7.20;99.90;;;;;;5000311;28;20739;-65
2023/12/16 01:50:38;;;;;;;10.00;2.03;;;7.20;99.90;;;;;;4997647;28;20029;-66
2023/12/16 01:53:05;;;;;;;11.27;2.40;;;7.10;99.90;;;;;;5001570;28;20046;-66
2023/12/16 01:55:31;;;;;;;12.68;3.45;;;7.10;99.90;;;;;;5002591;28;20050;-65
2023/12/16 01:57:57;;;;;;;5.50;1.90;;;7.10;99.90;;;;;;5002718;28;20120;-66
2023/12/16 02:00:24;;;;;;;7.68;1.90;;;7.10;99.90;;;;;;5001630;28;20029;-66
2023/12/16 02:02:50;;;;;;;8.70;2.00;;;7.10;99.90;;;;;;4998308;28;20080;-65
2023/12/16 02:05:16;;;;;;;9.95;2.08;;;7.10;99.90;;;;;;4989115;28;20536;-66
2023/12/16 02:07:44;;;;;;;9.55;2.10;;;7.10;99.90;;;;;;4996028;28;20130;-65
2023/12/16 02:10:09;;;;;;;7.33;1.70;;;7.10;99.90;;;;;;5002411;28;20030;-66
2023/12/16 02:12:35;;;;;;;10.40;2.30;;;7.10;99.90;;;;;;4995588;28;20107;-65
2023/12/16 02:15:02;;;;;;;15.15;2.53;;;7.10;99.90;;;;;;5002596;28;20042;-66
2023/12/16 02:17:28;;;;;;;10.48;2.75;;;7.10;99.90;;;;;;5002799;28;20088;-66
2023/12/16 02:19:54;;;;;;;8.00;2.35;;;7.10;99.90;;;;;;4993506;28;20050;-65
2023/12/16 02:22:21;;;;;;;6.20;1.60;;;7.10;99.90;;;;;;5001134;28;20301;-66
2023/12/16 02:24:47;;;;;;;7.65;2.28;;;7.10;99.90;;;;;;4994963;28;20908;-66
2023/12/16 02:27:14;;;;;;;7.97;1.70;;;7.10;99.90;;;;;;5007715;28;20473;-66
2023/12/16 02:29:39;;;;;;;11.32;1.83;;;7.10;99.90;;;;;;4997227;28;20121;-65
2023/12/16 02:32:06;;;;;;;13.65;2.30;;;7.10;99.90;;;;;;5002081;28;20148;-66
2023/12/16 02:34:32;;;;;;;10.73;2.40;;;7.10;99.90;;;;;;5001669;28;20679;-65
2023/12/16 02:36:58;;;;;;;11.85;2.00;;;7.10;99.90;;;;;;5001541;28;20117;-66
2023/12/16 02:39:24;;;;;;;11.93;2.45;;;7.10;99.90;;;;;;4993520;28;20139;-66
2023/12/16 02:41:49;;;;;;;10.73;2.10;;;7.00;99.90;;;;;;4997028;28;20046;-66
2023/12/16 02:44:15;;;;;;;9.55;2.13;;;7.00;99.90;;;;;;4998820;28;20041;-66
2023/12/16 02:46:41;;;;;;;16.58;2.28;;;7.00;99.90;;;;;;4997553;28;20531;-65
2023/12/16 02:49:06;;;;;;;11.02;2.60;;;7.00;99.90;;;;;;4995836;28;20045;-65
2023/12/16 02:51:32;;;;;;;8.85;2.40;;;7.00;99.90;;;;;;4996385;28;20472;-64
2023/12/16 02:53:58;;;;;;;11.60;2.67;;;7.00;99.90;;;;;;4998990;28;20029;-65
2023/12/16 02:56:24;;;;;;;14.93;2.75;;;7.00;99.90;;;;;;4999742;28;20060;-66
2023/12/16 02:58:50;;;;;;;12.43;2.78;;;7.00;99.90;;;;;;5000596;28;21191;-65
2023/12/16 03:01:16;;;;;;;7.28;2.20;;;7.00;99.90;;;;;;4999203;28;20504;-65
2023/12/16 03:03:42;;;;;;;16.08;3.10;;;7.00;99.90;;;;;;5002090;28;20101;-66
2023/12/16 03:06:08;;;;;;;10.18;2.42;;;7.00;99.90;;;;;;5002121;28;20045;-65
2023/12/16 03:08:35;;;;;;;9.23;1.60;;;6.90;99.90;;;;;;5002113;28;20038;-65
2023/12/16 03:11:02;;;;;;;11.85;2.42;;;7.00;99.90;;;;;;5002695;28;20663;-65
2023/12/16 03:13:28;;;;;;;15.13;2.22;;;7.00;99.90;;;;;;4998475;28;20041;-65
2023/12/16 03:15:54;;;;;;;15.95;2.80;;;7.10;99.90;;;;;;4994464;28;20046;-65
2023/12/16 03:18:20;;;;;;;16.45;3.22;;;7.10;99.90;;;;;;5004353;28;20558;-65
2023/12/16 03:20:46;;;;;;;18.85;3.13;;;7.10;99.90;;;;;;5001470;28;20177;-64
2023/12/16 03:23:11;;;;;;;11.93;2.28;;;7.10;99.90;;;;;;5004922;28;20096;-66
2023/12/16 03:25:37;;;;;;;12.00;2.45;;;7.10;99.90;;;;;;5005933;28;20041;-65
2023/12/16 03:28:06;;;;;;;13.40;2.72;;;7.00;99.90;;;;;;5004359;28;20121;-64
2023/12/16 03:30:32;;;;;;;9.27;2.75;;;7.00;99.90;;;;;;4999280;28;20046;-65
2023/12/16 03:32:58;;;;;;;9.90;3.08;;;7.00;99.90;;;;;;4998739;28;20030;-65
2023/12/16 03:35:24;;;;;;;12.10;2.45;;;7.00;99.90;;;;;;5005196;28;20330;-65
2023/12/16 03:37:50;;;;;;;14.95;2.33;;;7.00;99.90;;;;;;5001567;28;20049;-64
2023/12/16 03:40:15;;;;;;;14.20;3.15;;;6.90;99.90;;;;;;4982861;28;20085;-65
2023/12/16 03:42:41;;;;;;;11.85;2.40;;;7.00;99.90;;;;;;4996663;28;20048;-65
2023/12/16 03:45:07;;;;;;;7.97;2.03;;;6.90;99.90;;;;;;5004693;28;20038;-65
2023/12/16 03:47:33;;;;;;;11.73;2.67;;;6.90;99.90;;;;;;4998672;28;20098;-65
2023/12/16 03:49:58;;;;;;;11.25;2.95;;;6.90;99.90;;;;;;4996202;28;20405;-65
2023/12/16 03:52:24;;;;;;;13.27;2.47;;;6.90;99.90;;;;;;4995688;28;20049;-64
2023/12/16 03:54:50;;;;;;;15.77;2.53;;;6.90;99.90;;;;;;5001008;28;20038;-65
2023/12/16 03:57:16;;;;;;;12.73;2.25;;;6.80;99.90;;;;;;5004619;28;20097;-65
2023/12/16 03:59:42;;;;;;;11.43;2.50;;;6.80;99.90;;;;;;5000535;28;20113;-64
2023/12/16 04:02:08;;;;;;;12.02;2.30;;;6.80;99.90;;;;;;4993831;28;20125;-65
2023/12/16 04:04:33;;;;;;;16.65;2.90;;;6.80;99.90;;;;;;5001015;28;20069;-65
2023/12/16 04:07:00;;;;;;;14.38;2.85;;;6.80;99.90;;;;;;5004351;28;20037;-65
2023/12/16 04:09:27;;;;;;;12.38;2.88;;;6.80;99.90;;;;;;5002615;28;20033;-64
2023/12/16 04:11:53;;;;;;;15.63;2.60;;;6.80;99.90;;;;;;5003323;28;20037;-65
2023/12/16 04:14:19;;;;;;;17.50;3.10;;;6.80;99.90;;;;;;5000332;28;20060;-64
2023/12/16 04:16:45;;;;;;;19.65;3.88;;;6.70;99.90;;;;;;4992256;28;20521;-64
2023/12/16 04:19:12;;;;;;;16.10;3.25;;;6.70;99.90;;;;;;5001109;28;20052;-65
2023/12/16 04:21:38;;;;;;;11.57;2.47;;;6.70;99.90;;;;;;5000125;28;20477;-64
2023/12/16 04:24:04;;;;;;;17.15;2.80;;;6.70;99.90;;;;;;4996005;28;20050;-65
2023/12/16 04:26:30;;;;;;;12.70;2.88;;;6.70;99.90;;;;;;5003218;28;20138;-65
2023/12/16 04:28:55;;;;;;;13.90;3.13;;;6.70;99.90;;;;;;4985197;28;20492;-65
2023/12/16 04:31:21;;;;;;;11.10;3.28;;;6.70;99.90;;;;;;5003229;28;20042;-64
2023/12/16 04:33:48;;;;;;;17.23;3.58;;;6.70;99.90;;;;;;4999052;28;20045;-65
2023/12/16 04:36:14;;;;;;;16.35;2.70;;;6.70;99.90;;;;;;5000434;28;20108;-66
2023/12/16 04:38:41;;;;;;;11.38;2.63;;;6.70;99.90;;;;;;5004014;28;20042;-64
2023/12/16 04:41:06;;;;;;;11.85;3.67;;;6.70;99.90;;;;;;5001727;28;20060;-65
2023/12/16 04:43:32;;;;;;;13.45;2.60;;;6.70;99.90;;;;;;5003594;28;20497;-65
2023/12/16 04:46:00;;;;;;;12.27;3.25;;;6.70;99.90;;;;;;5002099;28;20070;-65
2023/12/16 04:48:26;;;;;;;13.80;2.60;;;6.70;99.90;;;;;;4993727;28;20044;-65
2023/12/16 04:50:52;;;;;;;13.93;2.88;;;6.70;99.90;;;;;;4997927;28;20509;-66
2023/12/16 04:53:17;;;;;;;16.88;3.50;;;6.70;99.90;;;;;;5000072;28;20041;-66
2023/12/16 04:55:43;;;;;;;15.63;3.05;;;6.70;99.90;;;;;;4990626;28;20045;-64
2023/12/16 04:58:09;;;;;;;19.08;3.17;;;6.70;99.90;;;;;;5002445;28;20034;-65
2023/12/16 05:00:35;;;;;;;15.95;3.22;;;6.60;99.90;;;;;;5002386;28;20500;-65
2023/12/16 05:03:01;;;;;;;16.20;3.50;;;6.50;99.90;;;;;;5003271;28;20036;-65
2023/12/16 05:05:26;;;;;;;22.42;3.58;;;6.60;99.90;;;;;;5003321;28;20094;-65
2023/12/16 05:07:52;;;;;;;23.13;2.78;;;6.70;99.90;;;;;;5003489;28;20065;-66
2023/12/16 05:10:18;;;;;;;14.88;3.10;;;6.60;99.90;;;;;;4991586;28;20049;-66
2023/12/16 05:12:44;;;;;;;18.90;3.50;;;6.70;99.90;;;;;;4991839;28;20386;-64
2023/12/16 05:15:10;;;;;;;17.52;3.17;;;6.70;99.90;;;;;;5000298;28;20117;-66
2023/12/16 05:17:36;;;;;;;15.52;3.35;;;6.70;99.90;;;;;;5003121;28;20045;-65
2023/12/16 05:20:03;;;;;;;18.48;3.00;;;6.70;99.90;;;;;;5001143;28;20061;-64
2023/12/16 05:22:33;;;;;;;14.35;3.55;;;6.80;99.90;;;;;;5002167;28;20053;-64
2023/12/16 05:25:01;;;;;;;19.50;4.65;;;6.80;99.90;;;;;;5001281;28;20052;-65
2023/12/16 05:27:27;;;;;;;24.17;4.00;;;6.80;99.90;;;;;;4999719;28;20341;-65
2023/12/16 05:29:53;;;;;;;22.20;3.63;;;6.80;99.90;;;;;;4999556;28;20444;-64
2023/12/16 05:32:19;;;;;;;15.48;3.72;;;6.80;99.90;;;;;;5000613;28;20038;-65
2023/12/16 05:34:44;;;;;;;24.67;4.72;;;6.80;99.90;;;;;;4998293;28;20046;-65
2023/12/16 05:37:10;;;;;;;20.38;3.60;;;6.90;99.90;;;;;;5003417;28;20045;-64
2023/12/16 05:39:36;;;;;;;21.42;5.28;;;6.90;99.90;;;;;;5003682;28;20046;-64
2023/12/16 05:42:02;;;;;;;21.52;4.80;;;7.00;99.90;;;;;;5001899;28;20453;-65
2023/12/16 05:44:28;;;;;;;21.73;4.15;;;7.00;99.90;;;;;;5000938;28;20045;-64
2023/12/16 05:46:53;;;;;;;24.27;5.45;;;7.00;99.90;;;;;;4997974;28;20052;-66
2023/12/16 05:49:19;;;;;;;21.35;4.97;;;7.10;99.90;;;;;;5002382;28;20041;-65
2023/12/16 05:51:45;;;;;;;20.48;4.38;;;7.10;99.90;;;;;;4994089;28;20033;-65
2023/12/16 05:54:10;;;;;;;27.08;4.32;;;7.20;99.90;;;;;;4997852;28;20097;-65
2023/12/16 05:56:36;;;;;;;26.25;5.35;;;7.20;99.90;;;;;;5000193;28;20140;-66
2023/12/16 05:59:02;;;;;;;22.40;4.90;;;7.20;99.90;;;;;;5003446;28;20049;-65
2023/12/16 06:01:28;;;;;;;25.13;5.45;;;7.20;99.90;;;;;;5001156;28;20046;-67
2023/12/16 06:03:54;;;;;;;16.15;4.57;;;7.20;99.90;;;;;;4998054;28;20392;-66
2023/12/16 06:06:20;;;;;;;20.55;4.63;;;7.20;99.90;;;;;;5000231;28;20049;-65
2023/12/16 06:08:45;;;;;;;25.88;6.20;;;7.30;99.90;;;;;;4994771;28;20045;-66
2023/12/16 06:11:14;;;;;;;23.33;5.53;;;7.40;99.90;;;;;;4994553;28;20041;-66
2023/12/16 06:13:41;;;;;;;23.52;6.00;;;7.40;99.90;;;;;;5001878;28;20737;-67
2023/12/16 06:16:07;;;;;;;29.35;6.05;;;7.40;99.90;;;;;;4996554;28;20050;-65
2023/12/16 06:18:34;;;;;;;26.10;6.20;;;7.40;99.90;;;;;;5001480;28;20121;-65
2023/12/16 06:21:00;;;;;;;27.42;5.47;;;7.40;99.90;;;;;;4995991;28;20066;-66
2023/12/16 06:23:28;;;;;;;24.55;6.30;;;7.40;99.90;;;;;;4984485;28;20053;-66
2023/12/16 06:25:56;;;;;;;29.67;5.70;;;7.50;99.90;;;;;;5000030;28;20030;-66
2023/12/16 06:28:22;;;;;;;26.42;5.93;;;7.50;99.90;;;;;;4980644;28;20069;-65
2023/12/16 06:30:48;;;;;;;30.83;6.07;;;7.50;99.90;;;;;;4999519;28;20616;-65
2023/12/16 06:33:14;;;;;;;26.45;6.55;;;7.50;99.90;;;;;;4999219;28;20068;-66
2023/12/16 06:35:39;;;;;;;40.28;6.35;;;7.50;99.90;;;;;;4999953;28;20544;-66
2023/12/16 06:38:05;;;;;;;29.65;6.65;;;7.60;99.90;;;;;;4998514;28;20045;-66
2023/12/16 06:40:31;;;;;;;30.90;6.80;;;7.60;99.90;;;;;;5000241;28;20052;-65
2023/12/16 06:42:58;;;;;;;35.13;7.13;;;7.60;99.90;;;;;;4998480;28;20613;-66
2023/12/16 06:45:23;;;;;;;28.88;7.57;;;7.60;99.90;;;;;;4999529;28;20124;-65
2023/12/16 06:47:49;;;;;;;36.72;7.45;;;7.70;99.90;;;;;;5000560;28;20049;-65
2023/12/16 06:50:15;;;;;;;37.67;7.75;;;7.60;99.90;;;;;;5004169;28;20583;-66
2023/12/16 06:52:41;;;;;;;32.83;8.30;;;7.70;99.90;;;;;;5003129;28;20068;-66
2023/12/16 06:55:07;;;;;;;46.05;8.23;;;7.70;99.90;;;;;;5003620;28;20041;-65
2023/12/16 06:57:33;;;;;;;34.13;8.13;;;7.70;99.90;;;;;;5003660;28;20053;-64
2023/12/16 06:59:59;;;;;;;41.55;7.18;;;7.70;99.90;;;;;;5000083;28;20092;-65
2023/12/16 07:02:25;;;;;;;42.50;8.48;;;7.80;99.90;;;;;;5002013;28;20073;-65
2023/12/16 07:04:51;;;;;;;41.20;8.82;;;7.80;99.90;;;;;;5003288;28;20073;-66
2023/12/16 07:07:17;;;;;;;38.88;8.48;;;7.80;99.90;;;;;;5002271;28;20431;-65
2023/12/16 07:09:43;;;;;;;46.67;9.30;;;7.80;99.90;;;;;;5002872;28;20512;-65
2023/12/16 07:12:09;;;;;;;43.85;8.40;;;7.90;99.90;;;;;;5001084;28;20045;-64
2023/12/16 07:14:35;;;;;;;42.30;8.60;;;7.90;99.90;;;;;;5002850;28;20069;-65
2023/12/16 07:17:01;;;;;;;40.22;8.63;;;7.90;99.90;;;;;;5001079;28;20049;-66
2023/12/16 07:19:31;;;;;;;43.13;10.55;;;7.90;99.90;;;;;;4983653;28;20129;-64
2023/12/16 07:21:58;;;;;;;38.30;9.13;;;8.00;99.90;;;;;;5000612;28;20041;-65
2023/12/16 07:24:23;;;;;;;41.75;9.18;;;8.00;99.90;;;;;;5000898;28;20662;-65
2023/12/16 07:26:49;;;;;;;41.10;9.60;;;7.90;99.90;;;;;;5001639;28;20080;-66
2023/12/16 07:29:16;;;;;;;42.72;10.13;;;7.90;99.90;;;;;;5002573;28;20119;-66
2023/12/16 07:31:49;;;;;;;50.63;10.60;;;7.90;99.90;;;;;;5003057;28;20119;-66
2023/12/16 07:34:16;;;;;;;51.75;9.30;;;7.90;99.90;;;;;;5002690;28;20132;-65
2023/12/16 07:36:42;;;;;;;46.05;10.07;;;7.90;99.90;;;;;;5001544;28;20042;-64
2023/12/16 07:39:08;;;;;;;40.60;9.93;;;7.90;99.90;;;;;;5001590;28;20065;-65
2023/12/16 07:41:34;;;;;;;43.13;9.85;;;7.90;99.90;;;;;;5000007;28;20337;-66
2023/12/16 07:44:01;;;;;;;38.45;10.88;;;7.90;99.90;;;;;;5000530;28;20037;-65
2023/12/16 07:46:27;;;;;;;44.40;12.13;;;8.00;99.90;;;;;;5001389;28;20049;-66
2023/12/16 07:48:53;;;;;;;44.30;10.63;;;8.00;99.90;;;;;;5002116;28;20041;-65
2023/12/16 07:51:25;;;;;;;50.22;11.48;;;7.90;99.90;;;;;;5001134;28;20069;-65
2023/12/16 07:53:51;;;;;;;46.22;10.90;;;8.00;99.90;;;;;;5001310;28;20038;-65
2023/12/16 07:56:24;;;;;;;44.78;10.93;;;8.00;99.90;;;;;;5001313;28;20065;-67
2023/12/16 07:58:50;;;;;;;53.60;11.25;;;7.90;99.90;;;;;;5000262;28;20066;-66
2023/12/16 08:01:18;;;;;;;52.05;11.73;;;8.00;99.90;;;;;;5000109;28;20512;-66
2023/12/16 08:03:44;;;;;;;40.53;12.35;;;7.90;99.90;;;;;;5003168;28;20057;-66
2023/12/16 08:06:10;;;;;;;46.50;11.77;;;7.90;99.90;;;;;;5001407;28;20452;-65
2023/12/16 08:08:40;;;;;;;45.35;10.95;;;7.90;99.90;;;;;;5002056;28;20108;-66
2023/12/16 08:11:07;;;;;;;42.05;10.95;;;8.00;99.90;;;;;;5000508;28;20097;-65
2023/12/16 08:13:33;;;;;;;50.13;11.30;;;7.90;99.90;;;;;;5001679;28;20042;-66
2023/12/16 08:16:00;;;;;;;48.00;12.13;;;8.00;99.90;;;;;;5001829;28;20038;-64
2023/12/16 08:18:27;;;;;;;55.00;12.38;;;8.00;99.90;;;;;;5000744;28;20048;-64
2023/12/16 08:20:54;;;;;;;40.85;10.55;;;8.00;99.90;;;;;;5001106;28;20038;-65
2023/12/16 08:23:20;;;;;;;48.80;12.15;;;8.10;99.90;;;;;;5000128;28;20048;-64
2023/12/16 08:25:46;;;;;;;46.47;11.40;;;8.00;99.90;;;;;;5001276;28;20038;-66
2023/12/16 08:28:12;;;;;;;38.97;11.38;;;8.10;99.90;;;;;;5001087;28;20096;-64
2023/12/16 08:30:38;;;;;;;42.15;9.88;;;8.00;99.90;;;;;;4999828;28;20125;-65
2023/12/16 08:33:03;;;;;;;50.00;10.80;;;8.10;99.90;;;;;;4999942;28;20052;-65
2023/12/16 08:35:29;;;;;;;40.70;11.02;;;8.10;99.90;;;;;;5001458;28;20049;-65
2023/12/16 08:37:56;;;;;;;46.03;9.90;;;8.20;99.90;;;;;;5000946;28;20077;-65
2023/12/16 08:40:22;;;;;;;49.70;10.77;;;8.20;99.90;;;;;;5001273;28;20518;-65
2023/12/16 08:42:48;;;;;;;54.22;11.88;;;8.20;99.90;;;;;;5000878;28;20568;-65
2023/12/16 08:45:14;;;;;;;40.97;10.68;;;8.20;99.90;;;;;;4983008;28;20042;-65
2023/12/16 08:47:41;;;;;;;48.03;11.05;;;8.20;99.90;;;;;;5001170;28;20050;-65
2023/12/16 08:50:07;;;;;;;48.42;10.80;;;8.20;99.90;;;;;;4999445;28;20034;-64
2023/12/16 08:52:35;;;;;;;50.30;10.82;;;8.30;99.90;;;;;;5000229;28;20132;-65
2023/12/16 08:55:01;;;;;;;42.90;10.57;;;8.30;99.90;;;;;;5001817;28;20485;-65
2023/12/16 08:57:30;;;;;;;48.90;10.60;;;8.20;99.90;;;;;;4997648;28;20353;-65
2023/12/16 08:59:56;;;;;;;45.00;10.50;;;8.30;99.90;;;;;;4983195;28;20041;-64
2023/12/16 09:02:22;;;;;;;38.85;10.60;;;8.30;99.90;;;;;;5000628;28;20044;-65
2023/12/16 09:04:48;;;;;;;48.42;11.95;;;8.20;99.90;;;;;;5001715;28;20095;-64
2023/12/16 09:07:14;;;;;;;39.92;10.35;;;8.20;99.90;;;;;;5001066;28;20037;-64
2023/12/16 09:09:39;;;;;;;50.42;11.75;;;8.30;99.90;;;;;;5001602;28;20044;-65
2023/12/16 09:12:06;;;;;;;49.83;10.82;;;8.30;99.90;;;;;;4999185;28;20041;-65
2023/12/16 09:14:33;;;;;;;40.45;11.30;;;8.30;99.90;;;;;;4999944;28;20117;-64
2023/12/16 09:16:59;;;;;;;42.67;11.43;;;8.30;99.90;;;;;;4999327;28;20045;-64
2023/12/16 09:19:25;;;;;;;36.42;10.45;;;8.30;99.90;;;;;;5001205;28;20048;-65
2023/12/16 09:21:50;;;;;;;42.22;10.63;;;8.40;99.90;;;;;;4982263;28;20441;-65
2023/12/16 09:24:17;;;;;;;43.97;12.40;;;8.30;99.90;;;;;;4999872;28;20117;-64
2023/12/16 09:26:43;;;;;;;56.83;12.13;;;8.30;99.90;;;;;;4999109;28;20042;-65
2023/12/16 09:29:11;;;;;;;49.53;12.35;;;8.40;99.90;;;;;;4999481;28;20124;-65
2023/12/16 09:31:37;;;;;;;46.65;11.68;;;8.30;99.90;;;;;;4999618;28;20073;-65
2023/12/16 09:34:03;;;;;;;47.33;11.38;;;8.30;99.90;;;;;;5000355;28;20505;-65
2023/12/16 09:36:29;;;;;;;48.17;12.07;;;8.40;99.90;;;;;;4999360;28;20046;-64
2023/12/16 09:38:56;;;;;;;41.75;10.85;;;8.30;99.90;;;;;;4999444;28;20468;-65
2023/12/16 09:41:24;;;;;;;43.28;12.48;;;8.40;99.90;;;;;;4999997;28;20060;-64
2023/12/16 09:43:52;;;;;;;47.90;12.27;;;8.30;99.90;;;;;;4997469;28;20053;-65
2023/12/16 09:46:24;;;;;;;53.03;12.00;;;8.40;99.90;;;;;;4996725;28;20539;-66
2023/12/16 09:48:53;;;;;;;42.45;11.65;;;8.40;99.90;;;;;;4997460;28;20034;-64
2023/12/16 09:51:21;;;;;;;53.35;11.57;;;8.40;99.90;;;;;;4999012;28;20073;-64
2023/12/16 09:53:51;;;;;;;48.00;13.27;;;8.20;99.90;;;;;;4999825;28;20046;-65
2023/12/16 09:56:17;;;;;;;49.60;13.65;;;8.50;99.90;;;;;;4999577;28;20100;-65
2023/12/16 09:58:48;;;;;;;43.70;10.82;;;8.50;99.90;;;;;;4999440;28;20030;-64
2023/12/16 10:01:17;;;;;;;39.45;11.75;;;8.50;99.90;;;;;;4997174;28;20060;-65
2023/12/16 10:03:47;;;;;;;45.28;11.52;;;8.50;99.90;;;;;;4999671;28;20045;-65
2023/12/16 10:06:13;;;;;;;49.05;11.75;;;8.40;99.90;;;;;;4999514;28;20073;-64
2023/12/16 10:08:40;;;;;;;51.00;12.13;;;8.50;99.90;;;;;;4998961;28;20659;-65
2023/12/16 10:11:06;;;;;;;45.67;11.75;;;8.40;99.90;;;;;;4981634;28;20045;-65
2023/12/16 10:13:33;;;;;;;43.20;11.40;;;8.50;99.90;;;;;;4997273;28;20515;-64
2023/12/16 10:15:59;;;;;;;54.20;12.32;;;8.40;99.90;;;;;;4999525;28;20038;-64
2023/12/16 10:18:26;;;;;;;52.50;12.90;;;8.50;99.90;;;;;;4998169;28;20047;-64
2023/12/16 10:21:02;;;;;;;40.03;12.43;;;8.50;99.90;;;;;;4997153;28;20065;-65
2023/12/16 10:23:28;;;;;;;44.45;12.60;;;8.60;99.90;;;;;;4997926;28;20129;-65
2023/12/16 10:25:55;;;;;;;41.47;11.70;;;8.60;99.90;;;;;;4999281;28;21048;-64
2023/12/16 10:28:20;;;;;;;48.00;12.95;;;8.50;99.90;;;;;;4999345;28;20040;-64
2023/12/16 10:30:46;;;;;;;36.25;12.25;;;8.60;99.90;;;;;;4998485;28;20390;-64
2023/12/16 10:33:13;;;;;;;46.08;13.05;;;8.60;99.90;;;;;;5000532;28;20049;-65
2023/12/16 10:35:42;;;;;;;42.25;11.35;;;8.60;99.90;;;;;;4997981;28;20038;-63
2023/12/16 10:38:08;;;;;;;37.00;12.13;;;8.60;99.90;;;;;;4998950;28;20131;-65
2023/12/16 10:40:37;;;;;;;39.42;13.93;;;8.70;99.90;;;;;;4998932;28;20050;-64
2023/12/16 10:43:03;;;;;;;48.78;12.95;;;8.60;99.90;;;;;;4998005;28;20105;-64
2023/12/16 10:45:29;;;;;;;48.15;13.63;;;8.70;99.90;;;;;;5000083;28;20093;-64
2023/12/16 10:47:56;;;;;;;44.78;12.38;;;8.70;99.90;;;;;;4998153;28;20141;-64
2023/12/16 10:50:25;;;;;;;53.38;13.23;;;8.60;99.90;;;;;;4981360;28;20034;-64
2023/12/16 10:52:56;;;;;;;53.97;13.40;;;8.70;99.90;;;;;;4997469;28;20056;-64
2023/12/16 10:55:31;;;;;;;51.15;13.07;;;8.70;99.90;;;;;;4997507;28;20049;-65
2023/12/16 10:58:09;;;;;;;41.13;14.45;;;8.80;99.90;;;;;;4996225;28;20642;-65
2023/12/16 11:00:38;;;;;;;45.60;13.82;;;8.70;99.90;;;;;;4978930;28;20050;-64
2023/12/16 11:03:23;;;;;;;41.42;12.40;;;8.80;99.90;;;;;;4998177;28;21197;-64
2023/12/16 11:05:58;;;;;;;47.35;12.73;;;8.80;99.90;;;;;;4999417;28;20034;-64
2023/12/16 11:08:24;;;;;;;38.70;11.68;;;9.00;99.90;;;;;;4997448;28;20861;-65
2023/12/16 11:10:51;;;;;;;31.38;11.82;;;9.00;99.90;;;;;;4997642;28;20507;-64
2023/12/16 11:13:17;;;;;;;33.95;11.85;;;9.10;99.90;;;;;;4980359;28;20120;-63
2023/12/16 11:15:44;;;;;;;29.10;10.40;;;9.00;99.90;;;;;;4998106;28;20045;-64
2023/12/16 11:18:12;;;;;;;26.25;9.50;;;9.20;99.90;;;;;;4998709;28;20078;-64
2023/12/16 11:20:42;;;;;;;30.60;10.63;;;9.10;99.90;;;;;;4997418;28;20147;-64
2023/12/16 11:23:10;;;;;;;31.77;11.10;;;9.20;99.90;;;;;;4998130;28;20046;-64
2023/12/16 11:25:36;;;;;;;31.85;10.63;;;9.20;99.90;;;;;;4995814;28;20788;-65
2023/12/16 11:28:05;;;;;;;36.35;11.48;;;9.10;99.90;;;;;;4997340;28;20424;-64
2023/12/16 11:30:34;;;;;;;;;;;9.00;99.90;;;;;;5000160;28;20101;-64
2023/12/16 11:33:00;;;;;;;36.45;11.95;;;9.00;99.90;;;;;;4996972;28;20019;-65
2023/12/16 11:35:35;;;;;;;38.20;11.75;;;9.00;99.90;;;;;;5001054;28;20539;-65
2023/12/16 11:38:02;;;;;;;34.33;11.35;;;9.10;99.90;;;;;;5000873;28;20473;-64
2023/12/16 11:40:44;;;;;;;27.42;10.57;;;9.00;99.90;;;;;;5002200;28;20042;-64
2023/12/16 11:43:11;;;;;;;31.83;10.30;;;9.10;99.90;;;;;;5001521;28;20052;-64
2023/12/16 11:45:48;;;;;;;31.45;10.93;;;9.00;99.90;;;;;;5002189;28;20077;-64
2023/12/16 11:48:17;;;;;;;24.42;8.52;;;9.10;99.90;;;;;;5001326;28;20041;-64
2023/12/16 11:50:44;;;;;;;;;;;9.30;99.90;;;;;;5001615;28;20117;-64
2023/12/16 11:53:14;;;;;;;25.88;7.97;;;9.20;99.90;;;;;;5001857;28;20675;-65
2023/12/16 11:55:40;;;;;;;20.90;7.72;;;9.30;99.90;;;;;;5002911;28;20496;-64
2023/12/16 11:58:07;;;;;;;17.98;6.95;;;9.30;99.90;;;;;;5001305;28;20464;-64
2023/12/16 12:00:33;;;;;;;15.55;6.75;;;9.40;99.90;;;;;;5000966;28;20477;-64
2023/12/16 12:03:00;;;;;;;12.77;6.75;;;9.40;99.90;;;;;;4999198;28;20542;-66
2023/12/16 12:05:27;;;;;;;12.52;6.30;;;9.50;99.90;;;;;;5000223;28;20053;-64
2023/12/16 12:07:52;;;;;;;15.45;7.47;;;9.40;99.90;;;;;;5000206;28;20140;-64
2023/12/16 12:10:18;;;;;;;18.25;6.80;;;9.50;99.90;;;;;;5000258;28;20037;-65
2023/12/16 12:12:44;;;;;;;15.52;6.72;;;9.60;99.90;;;;;;4999004;28;20516;-64
2023/12/16 12:15:10;;;;;;;14.98;6.47;;;9.50;99.90;;;;;;4999643;28;20707;-63
2023/12/16 12:17:36;;;;;;;11.15;5.93;;;9.50;99.90;;;;;;5000374;28;20045;-64
2023/12/16 12:20:04;;;;;;;13.27;6.35;;;9.60;99.90;;;;;;5000395;28;20121;-64
2023/12/16 12:22:31;;;;;;;10.15;5.95;;;9.50;99.90;;;;;;4998948;28;20053;-64
2023/12/16 12:24:57;;;;;;;15.05;7.22;;;9.60;99.90;;;;;;4982091;28;20056;-64
2023/12/16 12:27:23;;;;;;;14.25;6.70;;;9.50;99.90;;;;;;5000938;28;20500;-65
2023/12/16 12:29:53;;;;;;;13.68;6.05;;;9.50;99.90;;;;;;5001047;28;20036;-64
2023/12/16 12:32:19;;;;;;;10.55;6.18;;;9.50;99.90;;;;;;5001289;28;20527;-64
2023/12/16 12:34:45;;;;;;;16.15;7.57;;;9.50;99.90;;;;;;5000911;28;20577;-65
2023/12/16 12:37:11;;;;;;;16.40;7.22;;;9.40;99.90;;;;;;4999478;28;20048;-64
2023/12/16 12:39:37;;;;;;;17.40;7.35;;;9.60;99.90;;;;;;4999898;28;20085;-65
2023/12/16 12:42:03;;;;;;;16.55;6.85;;;9.50;99.90;;;;;;5001653;28;20539;-64